Boothbay, ME (04537)

1:44 PM EST on December 09, 2016 (GMT -0500)
1/4 mile N of Boothbay Common | | Change Station

Elev 98 ft 43.88 °N, 69.63 °W | Updated 8 seconds ago

Overcast
Overcast
30.1 °F
Feels Like 23 °F
N
8.0
Wind Variable Wind from WNW

Today
High -- | Low -- °F
--% Chance of Precip.
Yesterday
High -- | Low -- °F
Precip. -- in
Pressure 29.88 in
Visibility 10.0 miles
Clouds Overcast 5000 ft
Windchill 23 °F
Dew Point 12 °F
Humidity 48%
Rainfall 0.00 in
Snow Depth Not available.
7:01 AM 4:00 PM
Waxing Gibbous, 76% visible
METAR KIWI 091753Z AUTO 29009G15KT 10SM OVC050 01/M12 A2987 RMK AO2 SLP116 T00061117 10011 21017 53001
Pressure 29.88 in
Visibility 10.0 miles
Clouds Overcast 5000 ft
Windchill 23 °F
Dew Point 12 °F
Humidity 48%
Rainfall 0.00 in
Snow Depth Not available.
7:01 AM 4:00 PM
Waxing Gibbous, 76% visible
METAR KIWI 091753Z AUTO 29009G15KT 10SM OVC050 01/M12 A2987 RMK AO2 SLP116 T00061117 10011 21017 53001

10-Day Weather Forecast

Almanac

Astronomy

Dec. 09, 2016 Rise Set
Actual Time
Civil Twilight
Nautical Twilight
Astronomical Twilight
Moon
Length of Visible Light
Length of Day
Tomorrow will be .
, % of the Moon is Illuminated

Today's Extremes

State Highs State Lows

Community

WunderPhotos

Upload Photos

1,956,499 photos uploaded!

WunderBlog® & News

Nearby

Air Quality

  Air Quality AQ Index Pollutant
Not available.

Snow Depth

Station Depth Elevation

Earthquake Activity

City Distance Mag. Time & Date
Minimum magnitude displayed is 2.5.

Coastal Water Temperatures

Place Temperature

Stations

Nearby Weather Stations

Station Location Temp. Windchill Dew Point Humidity Wind Precip. Elev Updated Type
                   

Watches & Warnings

There are currently no watches in effect.